sensor_id;sensor_type;location;lat;lon;timestamp;temperature;humidity
26947;DHT22;14501;52.282;10.560;2023-04-03T00:00:05;-0.60;99.90
26947;DHT22;14501;52.282;10.560;2023-04-03T00:02:31;-0.70;99.90
26947;DHT22;14501;52.282;10.560;2023-04-03T00:04:56;-0.70;99.90
26947;DHT22;14501;52.282;10.560;2023-04-03T00:07:22;-0.80;99.90
26947;DHT22;14501;52.282;10.560;2023-04-03T00:09:47;-0.80;99.90
26947;DHT22;14501;52.282;10.560;2023-04-03T00:12:13;1.10;99.90
26947;DHT22;14501;52.282;10.560;2023-04-03T00:14:38;-0.90;99.90
26947;DHT22;14501;52.282;10.560;2023-04-03T00:19:30;-0.90;99.90
26947;DHT22;14501;52.282;10.560;2023-04-03T00:21:56;-1.00;99.90
26947;DHT22;14501;52.282;10.560;2023-04-03T00:24:22;-1.10;99.90
26947;DHT22;14501;52.282;10.560;2023-04-03T00:29:13;-1.10;99.90
26947;DHT22;14501;52.282;10.560;2023-04-03T00:31:39;-1.00;99.90
26947;DHT22;14501;52.282;10.560;2023-04-03T00:34:05;-1.20;99.90
26947;DHT22;14501;52.282;10.560;2023-04-03T00:36:30;-1.20;99.90
26947;DHT22;14501;52.282;10.560;2023-04-03T00:38:56;-1.20;99.90
26947;DHT22;14501;52.282;10.560;2023-04-03T00:46:13;-1.20;99.90
26947;DHT22;14501;52.282;10.560;2023-04-03T00:48:44;-1.30;99.90
26947;DHT22;14501;52.282;10.560;2023-04-03T00:51:17;-1.40;99.90
26947;DHT22;14501;52.282;10.560;2023-04-03T00:53:49;-1.40;99.90
26947;DHT22;14501;52.282;10.560;2023-04-03T00:56:18;-1.40;99.90
26947;DHT22;14501;52.282;10.560;2023-04-03T00:58:51;-1.40;99.90
26947;DHT22;14501;52.282;10.560;2023-04-03T01:01:22;-1.50;99.90
26947;DHT22;14501;52.282;10.560;2023-04-03T01:06:17;-1.60;99.90
26947;DHT22;14501;52.282;10.560;2023-04-03T01:08:43;-1.60;99.90
26947;DHT22;14501;52.282;10.560;2023-04-03T01:13:35;-1.60;99.90
26947;DHT22;14501;52.282;10.560;2023-04-03T01:16:05;-1.60;99.90
26947;DHT22;14501;52.282;10.560;2023-04-03T01:18:32;-1.70;99.90
26947;DHT22;14501;52.282;10.560;2023-04-03T01:26:11;-1.60;99.90
26947;DHT22;14501;52.282;10.560;2023-04-03T01:28:37;-1.60;99.90
26947;DHT22;14501;52.282;10.560;2023-04-03T01:34:05;-1.60;99.90
26947;DHT22;14501;52.282;10.560;2023-04-03T01:36:31;-1.60;99.90
26947;DHT22;14501;52.282;10.560;2023-04-03T01:38:58;-1.60;99.90
26947;DHT22;14501;52.282;10.560;2023-04-03T01:41:25;-1.60;99.90
26947;DHT22;14501;52.282;10.560;2023-04-03T01:43:51;-1.70;99.90
26947;DHT22;14501;52.282;10.560;2023-04-03T01:46:17;-1.60;99.90
26947;DHT22;14501;52.282;10.560;2023-04-03T01:53:35;-1.60;99.90
26947;DHT22;14501;52.282;10.560;2023-04-03T01:58:27;-1.60;99.90
26947;DHT22;14501;52.282;10.560;2023-04-03T02:00:53;-1.70;99.90
26947;DHT22;14501;52.282;10.560;2023-04-03T02:03:18;-1.70;99.90
26947;DHT22;14501;52.282;10.560;2023-04-03T02:05:44;-1.70;99.90
26947;DHT22;14501;52.282;10.560;2023-04-03T02:08:10;-1.70;99.90
26947;DHT22;14501;52.282;10.560;2023-04-03T02:10:36;-0.20;99.90
26947;DHT22;14501;52.282;10.560;2023-04-03T02:15:28;-1.60;99.90
26947;DHT22;14501;52.282;10.560;2023-04-03T02:17:54;-1.60;99.90
26947;DHT22;14501;52.282;10.560;2023-04-03T02:22:46;-1.60;99.90
26947;DHT22;14501;52.282;10.560;2023-04-03T02:27:38;-1.60;99.90
26947;DHT22;14501;52.282;10.560;2023-04-03T02:30:05;-1.70;99.90
26947;DHT22;14501;52.282;10.560;2023-04-03T02:32:31;-1.70;99.90
26947;DHT22;14501;52.282;10.560;2023-04-03T02:34:56;-1.70;99.90
26947;DHT22;14501;52.282;10.560;2023-04-03T02:37:22;-1.70;99.90
26947;DHT22;14501;52.282;10.560;2023-04-03T02:39:48;-1.80;99.90
26947;DHT22;14501;52.282;10.560;2023-04-03T02:42:13;-1.80;99.90
26947;DHT22;14501;52.282;10.560;2023-04-03T02:47:05;-1.80;99.90
26947;DHT22;14501;52.282;10.560;2023-04-03T02:51:57;-1.80;99.90
26947;DHT22;14501;52.282;10.560;2023-04-03T02:54:23;-1.80;99.90
26947;DHT22;14501;52.282;10.560;2023-04-03T02:56:50;-1.80;99.90
26947;DHT22;14501;52.282;10.560;2023-04-03T03:06:34;-1.90;99.90
26947;DHT22;14501;52.282;10.560;2023-04-03T03:08:59;-1.90;99.90
26947;DHT22;14501;52.282;10.560;2023-04-03T03:11:25;-1.80;99.90
26947;DHT22;14501;52.282;10.560;2023-04-03T03:13:51;-1.90;99.90
26947;DHT22;14501;52.282;10.560;2023-04-03T03:16:17;-1.70;99.90
26947;DHT22;14501;52.282;10.560;2023-04-03T03:21:09;-1.90;99.90
26947;DHT22;14501;52.282;10.560;2023-04-03T03:26:07;-1.90;99.90
26947;DHT22;14501;52.282;10.560;2023-04-03T03:28:33;-1.90;99.90
26947;DHT22;14501;52.282;10.560;2023-04-03T03:30:59;-1.90;99.90
26947;DHT22;14501;52.282;10.560;2023-04-03T03:33:25;-1.90;99.90
26947;DHT22;14501;52.282;10.560;2023-04-03T03:35:55;-1.90;99.90
26947;DHT22;14501;52.282;10.560;2023-04-03T03:38:21;-1.90;99.90
26947;DHT22;14501;52.282;10.560;2023-04-03T03:40:48;-1.90;99.90
26947;DHT22;14501;52.282;10.560;2023-04-03T03:43:15;-1.90;99.90
26947;DHT22;14501;52.282;10.560;2023-04-03T03:45:40;-1.90;99.90
26947;DHT22;14501;52.282;10.560;2023-04-03T03:48:06;-1.90;99.90
26947;DHT22;14501;52.282;10.560;2023-04-03T03:50:32;-2.00;99.90
26947;DHT22;14501;52.282;10.560;2023-04-03T03:55:23;-2.00;99.90
26947;DHT22;14501;52.282;10.560;2023-04-03T04:00:15;-2.00;99.90
26947;DHT22;14501;52.282;10.560;2023-04-03T04:05:07;-2.00;99.90
26947;DHT22;14501;52.282;10.560;2023-04-03T04:09:59;-2.10;99.90
26947;DHT22;14501;52.282;10.560;2023-04-03T04:12:25;-2.10;99.90
26947;DHT22;14501;52.282;10.560;2023-04-03T04:14:50;-2.10;99.90
26947;DHT22;14501;52.282;10.560;2023-04-03T04:17:16;-2.20;99.90
26947;DHT22;14501;52.282;10.560;2023-04-03T04:24:34;-2.20;99.90
26947;DHT22;14501;52.282;10.560;2023-04-03T04:29:25;-2.20;99.90
26947;DHT22;14501;52.282;10.560;2023-04-03T04:34:17;-2.20;99.90
26947;DHT22;14501;52.282;10.560;2023-04-03T04:36:42;-2.40;99.90
26947;DHT22;14501;52.282;10.560;2023-04-03T04:44:00;-2.30;99.90
26947;DHT22;14501;52.282;10.560;2023-04-03T04:46:26;-2.30;99.90
26947;DHT22;14501;52.282;10.560;2023-04-03T04:48:51;-2.30;99.90
26947;DHT22;14501;52.282;10.560;2023-04-03T04:56:09;-2.30;99.90
26947;DHT22;14501;52.282;10.560;2023-04-03T04:58:35;-2.30;99.90
26947;DHT22;14501;52.282;10.560;2023-04-03T05:01:07;-2.30;99.90
26947;DHT22;14501;52.282;10.560;2023-04-03T05:10:51;-2.20;99.90
26947;DHT22;14501;52.282;10.560;2023-04-03T05:15:45;-2.10;99.90
26947;DHT22;14501;52.282;10.560;2023-04-03T05:18:11;-2.00;99.90
26947;DHT22;14501;52.282;10.560;2023-04-03T05:20:37;-2.00;99.90
26947;DHT22;14501;52.282;10.560;2023-04-03T05:32:46;-1.70;99.90
26947;DHT22;14501;52.282;10.560;2023-04-03T05:35:12;-1.60;99.90
26947;DHT22;14501;52.282;10.560;2023-04-03T05:37:38;-1.50;99.90
26947;DHT22;14501;52.282;10.560;2023-04-03T05:40:05;-1.50;99.90
26947;DHT22;14501;52.282;10.560;2023-04-03T05:42:31;-1.40;99.90
26947;DHT22;14501;52.282;10.560;2023-04-03T05:47:23;-1.20;99.90
26947;DHT22;14501;52.282;10.560;2023-04-03T05:49:48;-1.20;99.90
26947;DHT22;14501;52.282;10.560;2023-04-03T05:52:22;-1.10;99.90
26947;DHT22;14501;52.282;10.560;2023-04-03T05:54:48;-1.00;99.90
26947;DHT22;14501;52.282;10.560;2023-04-03T05:57:17;-0.90;99.90
26947;DHT22;14501;52.282;10.560;2023-04-03T05:59:44;-0.80;99.90
26947;DHT22;14501;52.282;10.560;2023-04-03T06:02:16;-0.60;99.90
26947;DHT22;14501;52.282;10.560;2023-04-03T06:04:42;-0.60;99.90
26947;DHT22;14501;52.282;10.560;2023-04-03T06:07:12;-0.50;99.90
26947;DHT22;14501;52.282;10.560;2023-04-03T06:12:04;-0.30;99.90
26947;DHT22;14501;52.282;10.560;2023-04-03T06:14:30;-0.10;99.90
26947;DHT22;14501;52.282;10.560;2023-04-03T06:16:56;1.10;99.90
26947;DHT22;14501;52.282;10.560;2023-04-03T06:19:22;1.20;99.90
26947;DHT22;14501;52.282;10.560;2023-04-03T06:21:47;2.40;99.90
26947;DHT22;14501;52.282;10.560;2023-04-03T06:24:17;2.10;99.90
26947;DHT22;14501;52.282;10.560;2023-04-03T06:26:43;2.20;99.90
26947;DHT22;14501;52.282;10.560;2023-04-03T06:31:35;1.90;99.90
26947;DHT22;14501;52.282;10.560;2023-04-03T06:34:04;1.70;99.90
26947;DHT22;14501;52.282;10.560;2023-04-03T06:36:31;1.50;99.90
26947;DHT22;14501;52.282;10.560;2023-04-03T06:38:57;1.50;99.90
26947;DHT22;14501;52.282;10.560;2023-04-03T06:43:48;1.40;99.90
26947;DHT22;14501;52.282;10.560;2023-04-03T06:46:19;1.40;99.90
26947;DHT22;14501;52.282;10.560;2023-04-03T06:48:45;1.50;99.90
26947;DHT22;14501;52.282;10.560;2023-04-03T06:51:24;1.50;99.90
26947;DHT22;14501;52.282;10.560;2023-04-03T06:53:51;1.60;99.90
26947;DHT22;14501;52.282;10.560;2023-04-03T06:56:18;1.70;99.90
26947;DHT22;14501;52.282;10.560;2023-04-03T06:58:44;1.80;99.90
26947;DHT22;14501;52.282;10.560;2023-04-03T07:01:12;1.90;99.90
26947;DHT22;14501;52.282;10.560;2023-04-03T07:03:38;2.00;99.90
26947;DHT22;14501;52.282;10.560;2023-04-03T07:06:04;2.00;99.90
26947;DHT22;14501;52.282;10.560;2023-04-03T07:08:31;2.10;99.90
26947;DHT22;14501;52.282;10.560;2023-04-03T07:10:57;3.10;99.90
26947;DHT22;14501;52.282;10.560;2023-04-03T07:13:23;2.20;99.90
26947;DHT22;14501;52.282;10.560;2023-04-03T07:15:48;2.30;99.90
26947;DHT22;14501;52.282;10.560;2023-04-03T07:18:14;2.40;99.90
26947;DHT22;14501;52.282;10.560;2023-04-03T07:20:40;2.70;99.90
26947;DHT22;14501;52.282;10.560;2023-04-03T07:23:05;2.70;99.90
26947;DHT22;14501;52.282;10.560;2023-04-03T07:25:31;2.80;99.90
26947;DHT22;14501;52.282;10.560;2023-04-03T07:27:57;2.80;99.90
26947;DHT22;14501;52.282;10.560;2023-04-03T07:32:49;3.10;99.90
26947;DHT22;14501;52.282;10.560;2023-04-03T07:35:15;3.10;99.90
26947;DHT22;14501;52.282;10.560;2023-04-03T07:37:41;3.20;99.90
26947;DHT22;14501;52.282;10.560;2023-04-03T07:40:07;4.50;99.90
26947;DHT22;14501;52.282;10.560;2023-04-03T07:42:34;3.50;99.90
26947;DHT22;14501;52.282;10.560;2023-04-03T07:45:00;3.70;99.90
26947;DHT22;14501;52.282;10.560;2023-04-03T07:47:27;3.70;99.90
26947;DHT22;14501;52.282;10.560;2023-04-03T07:49:52;3.90;99.90
26947;DHT22;14501;52.282;10.560;2023-04-03T07:52:18;3.90;99.90
26947;DHT22;14501;52.282;10.560;2023-04-03T07:54:43;4.00;99.90
26947;DHT22;14501;52.282;10.560;2023-04-03T07:57:09;4.30;99.90
26947;DHT22;14501;52.282;10.560;2023-04-03T07:59:35;4.40;99.90
26947;DHT22;14501;52.282;10.560;2023-04-03T08:02:00;4.60;99.90
26947;DHT22;14501;52.282;10.560;2023-04-03T08:04:26;4.50;99.90
26947;DHT22;14501;52.282;10.560;2023-04-03T08:06:52;7.60;99.90
26947;DHT22;14501;52.282;10.560;2023-04-03T08:09:18;4.90;99.90
26947;DHT22;14501;52.282;10.560;2023-04-03T08:11:44;6.50;99.90
26947;DHT22;14501;52.282;10.560;2023-04-03T08:14:11;7.60;99.90
26947;DHT22;14501;52.282;10.560;2023-04-03T08:16:43;12.00;99.90
26947;DHT22;14501;52.282;10.560;2023-04-03T08:19:08;13.50;99.90
26947;DHT22;14501;52.282;10.560;2023-04-03T08:21:36;19.10;94.50
26947;DHT22;14501;52.282;10.560;2023-04-03T08:24:01;19.30;94.50
26947;DHT22;14501;52.282;10.560;2023-04-03T08:26:29;21.10;86.80
26947;DHT22;14501;52.282;10.560;2023-04-03T08:28:55;21.90;76.90
26947;DHT22;14501;52.282;10.560;2023-04-03T08:31:20;20.80;75.00
26947;DHT22;14501;52.282;10.560;2023-04-03T08:36:26;21.40;71.20
26947;DHT22;14501;52.282;10.560;2023-04-03T08:38:53;22.20;71.10
26947;DHT22;14501;52.282;10.560;2023-04-03T08:41:36;22.70;65.80
26947;DHT22;14501;52.282;10.560;2023-04-03T08:49:56;22.70;62.40
26947;DHT22;14501;52.282;10.560;2023-04-03T08:52:42;20.30;65.70
26947;DHT22;14501;52.282;10.560;2023-04-03T08:55:27;20.10;70.20
26947;DHT22;14501;52.282;10.560;2023-04-03T08:58:05;20.20;66.90
26947;DHT22;14501;52.282;10.560;2023-04-03T09:00:44;20.90;72.40
26947;DHT22;14501;52.282;10.560;2023-04-03T09:03:16;21.20;64.00
26947;DHT22;14501;52.282;10.560;2023-04-03T09:08:28;22.40;65.70
26947;DHT22;14501;52.282;10.560;2023-04-03T09:16:54;17.90;68.40
26947;DHT22;14501;52.282;10.560;2023-04-03T09:24:28;20.50;69.30
26947;DHT22;14501;52.282;10.560;2023-04-03T09:26:58;21.10;66.50
26947;DHT22;14501;52.282;10.560;2023-04-03T09:29:26;22.10;63.70
26947;DHT22;14501;52.282;10.560;2023-04-03T09:32:02;20.10;65.50
26947;DHT22;14501;52.282;10.560;2023-04-03T09:34:39;19.70;67.30
26947;DHT22;14501;52.282;10.560;2023-04-03T09:39:53;16.40;70.70
26947;DHT22;14501;52.282;10.560;2023-04-03T09:42:21;14.30;76.90
26947;DHT22;14501;52.282;10.560;2023-04-03T09:45:04;14.90;78.40
26947;DHT22;14501;52.282;10.560;2023-04-03T09:47:35;15.40;75.90
26947;DHT22;14501;52.282;10.560;2023-04-03T09:52:46;12.00;79.40
26947;DHT22;14501;52.282;10.560;2023-04-03T10:00:27;9.50;89.30
26947;DHT22;14501;52.282;10.560;2023-04-03T10:02:57;9.10;91.20
26947;DHT22;14501;52.282;10.560;2023-04-03T10:05:40;8.70;92.40
26947;DHT22;14501;52.282;10.560;2023-04-03T10:10:43;8.30;91.80
26947;DHT22;14501;52.282;10.560;2023-04-03T10:13:19;7.80;92.70
26947;DHT22;14501;52.282;10.560;2023-04-03T10:16:07;7.50;93.20
26947;DHT22;14501;52.282;10.560;2023-04-03T10:21:40;7.00;94.00
26947;DHT22;14501;52.282;10.560;2023-04-03T10:24:23;6.90;93.20
26947;DHT22;14501;52.282;10.560;2023-04-03T10:32:32;7.00;93.30
26947;DHT22;14501;52.282;10.560;2023-04-03T10:38:08;7.60;93.50
26947;DHT22;14501;52.282;10.560;2023-04-03T10:43:50;8.30;92.40
26947;DHT22;14501;52.282;10.560;2023-04-03T10:46:27;8.50;91.90
26947;DHT22;14501;52.282;10.560;2023-04-03T10:54:04;10.00;93.00
26947;DHT22;14501;52.282;10.560;2023-04-03T10:56:41;10.30;88.10
26947;DHT22;14501;52.282;10.560;2023-04-03T11:01:36;11.10;88.10
26947;DHT22;14501;52.282;10.560;2023-04-03T11:04:04;11.20;88.40
26947;DHT22;14501;52.282;10.560;2023-04-03T11:06:39;11.00;87.10
26947;DHT22;14501;52.282;10.560;2023-04-03T11:11:45;9.20;90.20
26947;DHT22;14501;52.282;10.560;2023-04-03T11:14:31;9.10;91.60
26947;DHT22;14501;52.282;10.560;2023-04-03T11:17:15;8.80;91.20
26947;DHT22;14501;52.282;10.560;2023-04-03T11:22:34;8.60;91.90
26947;DHT22;14501;52.282;10.560;2023-04-03T11:27:56;9.00;91.60
26947;DHT22;14501;52.282;10.560;2023-04-03T11:30:23;8.90;90.30
26947;DHT22;14501;52.282;10.560;2023-04-03T11:35:57;9.20;90.90
26947;DHT22;14501;52.282;10.560;2023-04-03T11:38:37;9.50;90.20
26947;DHT22;14501;52.282;10.560;2023-04-03T11:41:07;9.70;88.80
26947;DHT22;14501;52.282;10.560;2023-04-03T11:43:36;10.00;90.20
26947;DHT22;14501;52.282;10.560;2023-04-03T11:46:06;10.90;86.90
26947;DHT22;14501;52.282;10.560;2023-04-03T11:51:37;11.30;84.40
26947;DHT22;14501;52.282;10.560;2023-04-03T11:54:35;11.40;84.40
26947;DHT22;14501;52.282;10.560;2023-04-03T12:11:25;11.00;90.00
26947;DHT22;14501;52.282;10.560;2023-04-03T12:38:05;10.40;87.80
26947;DHT22;14501;52.282;10.560;2023-04-03T12:40:50;10.20;87.20
26947;DHT22;14501;52.282;10.560;2023-04-03T12:48:49;9.30;88.90
26947;DHT22;14501;52.282;10.560;2023-04-03T12:54:00;9.40;90.50
26947;DHT22;14501;52.282;10.560;2023-04-03T12:56:29;10.00;88.80
26947;DHT22;14501;52.282;10.560;2023-04-03T12:59:22;10.20;86.00
26947;DHT22;14501;52.282;10.560;2023-04-03T13:02:01;10.20;87.00
26947;DHT22;14501;52.282;10.560;2023-04-03T13:04:27;9.90;86.90
26947;DHT22;14501;52.282;10.560;2023-04-03T13:06:53;9.70;88.90
26947;DHT22;14501;52.282;10.560;2023-04-03T13:09:24;9.60;89.60
26947;DHT22;14501;52.282;10.560;2023-04-03T13:12:01;9.60;90.00
26947;DHT22;14501;52.282;10.560;2023-04-03T13:14:29;9.70;87.10
26947;DHT22;14501;52.282;10.560;2023-04-03T13:17:15;10.00;90.00
26947;DHT22;14501;52.282;10.560;2023-04-03T13:19:42;10.60;87.50
26947;DHT22;14501;52.282;10.560;2023-04-03T13:22:27;10.60;85.10
26947;DHT22;14501;52.282;10.560;2023-04-03T13:24:55;10.70;84.50
26947;DHT22;14501;52.282;10.560;2023-04-03T13:27:23;10.60;87.70
26947;DHT22;14501;52.282;10.560;2023-04-03T13:29:54;10.60;88.00
26947;DHT22;14501;52.282;10.560;2023-04-03T13:32:25;10.40;88.20
26947;DHT22;14501;52.282;10.560;2023-04-03T13:34:52;10.20;88.90
26947;DHT22;14501;52.282;10.560;2023-04-03T13:37:28;10.00;88.30
26947;DHT22;14501;52.282;10.560;2023-04-03T13:42:31;9.50;88.10
26947;DHT22;14501;52.282;10.560;2023-04-03T13:45:25;9.70;89.40
26947;DHT22;14501;52.282;10.560;2023-04-03T13:48:06;9.00;89.50
26947;DHT22;14501;52.282;10.560;2023-04-03T13:50:33;9.10;88.50
26947;DHT22;14501;52.282;10.560;2023-04-03T13:53:12;9.20;90.50
26947;DHT22;14501;52.282;10.560;2023-04-03T13:58:24;10.00;87.80
26947;DHT22;14501;52.282;10.560;2023-04-03T14:03:44;9.60;89.40
26947;DHT22;14501;52.282;10.560;2023-04-03T14:06:13;9.30;87.70
26947;DHT22;14501;52.282;10.560;2023-04-03T14:08:39;9.20;88.00
26947;DHT22;14501;52.282;10.560;2023-04-03T14:11:08;9.90;89.50
26947;DHT22;14501;52.282;10.560;2023-04-03T14:13:34;8.90;89.40
26947;DHT22;14501;52.282;10.560;2023-04-03T14:16:00;11.10;90.30
26947;DHT22;14501;52.282;10.560;2023-04-03T14:23:18;8.20;88.50
26947;DHT22;14501;52.282;10.560;2023-04-03T14:25:44;8.40;90.10
26947;DHT22;14501;52.282;10.560;2023-04-03T14:28:18;8.40;90.60
26947;DHT22;14501;52.282;10.560;2023-04-03T14:30:47;8.70;91.70
26947;DHT22;14501;52.282;10.560;2023-04-03T14:33:15;9.10;90.40
26947;DHT22;14501;52.282;10.560;2023-04-03T14:35:41;9.80;90.00
26947;DHT22;14501;52.282;10.560;2023-04-03T14:38:33;9.90;90.10
26947;DHT22;14501;52.282;10.560;2023-04-03T14:41:00;8.20;90.60
26947;DHT22;14501;52.282;10.560;2023-04-03T14:43:26;8.00;90.80
26947;DHT22;14501;52.282;10.560;2023-04-03T14:45:51;8.10;92.00
26947;DHT22;14501;52.282;10.560;2023-04-03T14:48:23;7.70;91.70
26947;DHT22;14501;52.282;10.560;2023-04-03T14:50:50;8.00;91.40
26947;DHT22;14501;52.282;10.560;2023-04-03T14:55:45;8.50;89.10
26947;DHT22;14501;52.282;10.560;2023-04-03T14:58:15;10.90;90.50
26947;DHT22;14501;52.282;10.560;2023-04-03T15:00:43;9.40;89.70
26947;DHT22;14501;52.282;10.560;2023-04-03T15:03:16;9.10;90.20
26947;DHT22;14501;52.282;10.560;2023-04-03T15:05:44;8.50;90.00
26947;DHT22;14501;52.282;10.560;2023-04-03T15:08:25;8.40;90.40
26947;DHT22;14501;52.282;10.560;2023-04-03T15:10:51;8.50;92.60
26947;DHT22;14501;52.282;10.560;2023-04-03T15:13:22;8.70;91.20
26947;DHT22;14501;52.282;10.560;2023-04-03T15:15:48;8.30;90.40
26947;DHT22;14501;52.282;10.560;2023-04-03T15:18:25;8.30;90.70
26947;DHT22;14501;52.282;10.560;2023-04-03T15:20:52;8.00;89.70
26947;DHT22;14501;52.282;10.560;2023-04-03T15:23:18;7.80;91.50
26947;DHT22;14501;52.282;10.560;2023-04-03T15:25:48;7.70;90.70
26947;DHT22;14501;52.282;10.560;2023-04-03T15:28:33;7.60;90.80
26947;DHT22;14501;52.282;10.560;2023-04-03T15:30:59;7.60;91.40
26947;DHT22;14501;52.282;10.560;2023-04-03T15:33:25;7.60;91.10
26947;DHT22;14501;52.282;10.560;2023-04-03T15:35:51;8.80;92.00
26947;DHT22;14501;52.282;10.560;2023-04-03T15:38:16;8.00;92.10
26947;DHT22;14501;52.282;10.560;2023-04-03T15:40:42;9.60;91.40
26947;DHT22;14501;52.282;10.560;2023-04-03T15:45:36;8.30;90.90
26947;DHT22;14501;52.282;10.560;2023-04-03T15:48:04;8.60;91.30
26947;DHT22;14501;52.282;10.560;2023-04-03T15:50:31;8.10;91.20
26947;DHT22;14501;52.282;10.560;2023-04-03T15:52:57;8.00;91.50
26947;DHT22;14501;52.282;10.560;2023-04-03T15:55:28;7.80;92.10
26947;DHT22;14501;52.282;10.560;2023-04-03T15:57:55;7.60;91.90
26947;DHT22;14501;52.282;10.560;2023-04-03T16:00:21;7.80;92.10
26947;DHT22;14501;52.282;10.560;2023-04-03T16:02:49;7.50;92.20
26947;DHT22;14501;52.282;10.560;2023-04-03T16:05:16;7.30;92.80
26947;DHT22;14501;52.282;10.560;2023-04-03T16:07:42;6.90;91.70
26947;DHT22;14501;52.282;10.560;2023-04-03T16:10:09;6.90;92.50
26947;DHT22;14501;52.282;10.560;2023-04-03T16:12:35;7.00;91.70
26947;DHT22;14501;52.282;10.560;2023-04-03T16:15:01;7.00;91.70
26947;DHT22;14501;52.282;10.560;2023-04-03T16:17:27;7.10;91.80
26947;DHT22;14501;52.282;10.560;2023-04-03T16:19:54;7.60;91.90
26947;DHT22;14501;52.282;10.560;2023-04-03T16:22:21;10.40;93.00
26947;DHT22;14501;52.282;10.560;2023-04-03T16:29:41;7.80;90.90
26947;DHT22;14501;52.282;10.560;2023-04-03T16:32:06;7.60;91.30
26947;DHT22;14501;52.282;10.560;2023-04-03T16:36:59;7.50;90.60
26947;DHT22;14501;52.282;10.560;2023-04-03T16:41:51;7.20;91.40
26947;DHT22;14501;52.282;10.560;2023-04-03T16:44:16;7.10;92.10
26947;DHT22;14501;52.282;10.560;2023-04-03T16:46:42;7.00;91.90
26947;DHT22;14501;52.282;10.560;2023-04-03T16:49:08;8.10;92.70
26947;DHT22;14501;52.282;10.560;2023-04-03T16:51:33;7.70;93.10
26947;DHT22;14501;52.282;10.560;2023-04-03T16:53:59;6.60;92.70
26947;DHT22;14501;52.282;10.560;2023-04-03T16:58:56;6.50;92.20
26947;DHT22;14501;52.282;10.560;2023-04-03T17:01:22;6.40;92.70
26947;DHT22;14501;52.282;10.560;2023-04-03T17:03:48;6.30;93.20
26947;DHT22;14501;52.282;10.560;2023-04-03T17:06:21;6.30;92.80
26947;DHT22;14501;52.282;10.560;2023-04-03T17:08:50;6.20;93.30
26947;DHT22;14501;52.282;10.560;2023-04-03T17:11:16;6.20;93.60
26947;DHT22;14501;52.282;10.560;2023-04-03T17:13:42;6.00;93.20
26947;DHT22;14501;52.282;10.560;2023-04-03T17:16:11;5.90;94.10
26947;DHT22;14501;52.282;10.560;2023-04-03T17:18:38;6.00;94.40
26947;DHT22;14501;52.282;10.560;2023-04-03T17:21:04;5.80;94.10
26947;DHT22;14501;52.282;10.560;2023-04-03T17:23:30;5.70;93.30
26947;DHT22;14501;52.282;10.560;2023-04-03T17:25:56;5.70;94.00
26947;DHT22;14501;52.282;10.560;2023-04-03T17:30:57;5.70;94.70
26947;DHT22;14501;52.282;10.560;2023-04-03T17:33:24;6.30;94.30
26947;DHT22;14501;52.282;10.560;2023-04-03T17:35:50;5.80;95.90
26947;DHT22;14501;52.282;10.560;2023-04-03T17:38:16;5.60;94.80
26947;DHT22;14501;52.282;10.560;2023-04-03T17:40:42;5.50;94.80
26947;DHT22;14501;52.282;10.560;2023-04-03T17:43:09;6.00;96.00
26947;DHT22;14501;52.282;10.560;2023-04-03T17:45:35;5.20;95.20
26947;DHT22;14501;52.282;10.560;2023-04-03T17:48:01;5.10;95.20
26947;DHT22;14501;52.282;10.560;2023-04-03T17:50:28;4.90;95.80
26947;DHT22;14501;52.282;10.560;2023-04-03T17:55:21;4.70;97.40
26947;DHT22;14501;52.282;10.560;2023-04-03T17:57:47;4.50;96.90
26947;DHT22;14501;52.282;10.560;2023-04-03T18:00:13;4.40;97.20
26947;DHT22;14501;52.282;10.560;2023-04-03T18:02:41;4.40;98.40
26947;DHT22;14501;52.282;10.560;2023-04-03T18:05:08;4.10;98.40
26947;DHT22;14501;52.282;10.560;2023-04-03T18:07:49;4.50;98.50
26947;DHT22;14501;52.282;10.560;2023-04-03T18:10:18;4.00;97.40
26947;DHT22;14501;52.282;10.560;2023-04-03T18:15:10;3.90;97.60
26947;DHT22;14501;52.282;10.560;2023-04-03T18:17:36;3.80;97.80
26947;DHT22;14501;52.282;10.560;2023-04-03T18:22:28;3.60;98.40
26947;DHT22;14501;52.282;10.560;2023-04-03T18:24:55;3.60;98.50
26947;DHT22;14501;52.282;10.560;2023-04-03T18:27:24;3.50;98.90
26947;DHT22;14501;52.282;10.560;2023-04-03T18:29:54;3.30;99.90
26947;DHT22;14501;52.282;10.560;2023-04-03T18:32:28;3.20;99.50
26947;DHT22;14501;52.282;10.560;2023-04-03T18:37:24;3.10;99.90
26947;DHT22;14501;52.282;10.560;2023-04-03T18:39:58;3.10;99.90
26947;DHT22;14501;52.282;10.560;2023-04-03T18:42:25;2.90;99.90
26947;DHT22;14501;52.282;10.560;2023-04-03T18:44:55;2.90;99.90
26947;DHT22;14501;52.282;10.560;2023-04-03T18:47:22;2.80;99.90
26947;DHT22;14501;52.282;10.560;2023-04-03T18:49:48;2.70;99.90
26947;DHT22;14501;52.282;10.560;2023-04-03T18:52:20;2.60;99.90
26947;DHT22;14501;52.282;10.560;2023-04-03T18:54:53;2.70;99.90
26947;DHT22;14501;52.282;10.560;2023-04-03T18:57:18;2.50;99.90
26947;DHT22;14501;52.282;10.560;2023-04-03T19:02:11;2.50;99.90
26947;DHT22;14501;52.282;10.560;2023-04-03T19:04:37;2.50;99.90
26947;DHT22;14501;52.282;10.560;2023-04-03T19:07:03;2.30;99.90
26947;DHT22;14501;52.282;10.560;2023-04-03T19:09:31;2.10;99.90
26947;DHT22;14501;52.282;10.560;2023-04-03T19:11:57;2.40;99.90
26947;DHT22;14501;52.282;10.560;2023-04-03T19:14:26;2.40;99.90
26947;DHT22;14501;52.282;10.560;2023-04-03T19:16:52;2.40;99.90
26947;DHT22;14501;52.282;10.560;2023-04-03T19:19:18;2.60;99.90
26947;DHT22;14501;52.282;10.560;2023-04-03T19:24:11;2.60;99.90
26947;DHT22;14501;52.282;10.560;2023-04-03T19:26:38;2.70;99.90
26947;DHT22;14501;52.282;10.560;2023-04-03T19:29:04;2.70;99.90
26947;DHT22;14501;52.282;10.560;2023-04-03T19:31:30;2.70;99.90
26947;DHT22;14501;52.282;10.560;2023-04-03T19:36:27;2.70;99.90
26947;DHT22;14501;52.282;10.560;2023-04-03T19:38:52;2.60;99.90
26947;DHT22;14501;52.282;10.560;2023-04-03T19:41:20;2.50;99.90
26947;DHT22;14501;52.282;10.560;2023-04-03T19:43:48;2.50;99.90
26947;DHT22;14501;52.282;10.560;2023-04-03T19:46:14;2.30;99.90
26947;DHT22;14501;52.282;10.560;2023-04-03T19:48:43;2.90;99.90
26947;DHT22;14501;52.282;10.560;2023-04-03T19:51:09;2.30;99.90
26947;DHT22;14501;52.282;10.560;2023-04-03T19:58:26;2.20;99.90
26947;DHT22;14501;52.282;10.560;2023-04-03T20:00:54;2.20;99.90
26947;DHT22;14501;52.282;10.560;2023-04-03T20:03:20;2.10;99.90
26947;DHT22;14501;52.282;10.560;2023-04-03T20:05:46;2.00;99.90
26947;DHT22;14501;52.282;10.560;2023-04-03T20:08:12;1.90;99.90
26947;DHT22;14501;52.282;10.560;2023-04-03T20:10:38;1.90;99.90
26947;DHT22;14501;52.282;10.560;2023-04-03T20:13:05;2.10;99.90
26947;DHT22;14501;52.282;10.560;2023-04-03T20:15:34;1.70;99.90
26947;DHT22;14501;52.282;10.560;2023-04-03T20:18:08;1.80;99.90
26947;DHT22;14501;52.282;10.560;2023-04-03T20:20:34;1.80;99.90